sensor_id;sensor_type;location;lat;lon;timestamp;P1;durP1;ratioP1;P2;durP2;ratioP2
42192;SDS011;52467;40.114;18.306;2022-11-25T00:03:49;4.00;;;1.60;;
42192;SDS011;52467;40.114;18.306;2022-11-25T00:06:23;3.10;;;1.48;;
42192;SDS011;52467;40.114;18.306;2022-11-25T00:08:53;5.13;;;1.50;;
42192;SDS011;52467;40.114;18.306;2022-11-25T00:11:22;2.85;;;1.30;;
42192;SDS011;52467;40.114;18.306;2022-11-25T00:13:49;2.95;;;1.42;;
42192;SDS011;52467;40.114;18.306;2022-11-25T00:16:18;3.90;;;1.58;;
42192;SDS011;52467;40.114;18.306;2022-11-25T00:18:47;4.40;;;1.90;;
42192;SDS011;52467;40.114;18.306;2022-11-25T00:21:16;4.60;;;1.52;;
42192;SDS011;52467;40.114;18.306;2022-11-25T00:23:51;5.20;;;1.70;;
42192;SDS011;52467;40.114;18.306;2022-11-25T00:26:20;4.72;;;1.65;;
42192;SDS011;52467;40.114;18.306;2022-11-25T00:28:48;3.05;;;1.98;;
42192;SDS011;52467;40.114;18.306;2022-11-25T00:31:17;3.78;;;1.85;;
42192;SDS011;52467;40.114;18.306;2022-11-25T00:33:49;4.67;;;1.60;;
42192;SDS011;52467;40.114;18.306;2022-11-25T00:36:30;3.20;;;1.73;;
42192;SDS011;52467;40.114;18.306;2022-11-25T00:39:00;4.28;;;1.80;;
42192;SDS011;52467;40.114;18.306;2022-11-25T00:41:29;5.95;;;1.83;;
42192;SDS011;52467;40.114;18.306;2022-11-25T00:44:16;4.70;;;2.10;;
42192;SDS011;52467;40.114;18.306;2022-11-25T00:47:10;3.55;;;1.80;;
42192;SDS011;52467;40.114;18.306;2022-11-25T00:49:45;4.22;;;2.00;;
42192;SDS011;52467;40.114;18.306;2022-11-25T00:52:20;4.68;;;2.08;;
42192;SDS011;52467;40.114;18.306;2022-11-25T00:54:48;6.63;;;2.67;;
42192;SDS011;52467;40.114;18.306;2022-11-25T00:57:17;6.53;;;2.30;;
42192;SDS011;52467;40.114;18.306;2022-11-25T00:59:46;4.10;;;1.90;;
42192;SDS011;52467;40.114;18.306;2022-11-25T01:02:14;5.53;;;2.20;;
42192;SDS011;52467;40.114;18.306;2022-11-25T01:04:42;4.38;;;2.10;;
42192;SDS011;52467;40.114;18.306;2022-11-25T01:07:13;5.75;;;2.45;;
42192;SDS011;52467;40.114;18.306;2022-11-25T01:09:41;7.18;;;2.70;;
42192;SDS011;52467;40.114;18.306;2022-11-25T01:12:09;6.80;;;2.55;;
42192;SDS011;52467;40.114;18.306;2022-11-25T01:14:36;6.93;;;2.60;;
42192;SDS011;52467;40.114;18.306;2022-11-25T01:17:04;8.20;;;2.80;;
42192;SDS011;52467;40.114;18.306;2022-11-25T01:19:32;8.27;;;3.10;;
42192;SDS011;52467;40.114;18.306;2022-11-25T01:21:59;4.25;;;2.22;;
42192;SDS011;52467;40.114;18.306;2022-11-25T01:24:26;5.83;;;3.10;;
42192;SDS011;52467;40.114;18.306;2022-11-25T01:26:54;6.72;;;2.70;;
42192;SDS011;52467;40.114;18.306;2022-11-25T01:29:21;5.53;;;2.90;;
42192;SDS011;52467;40.114;18.306;2022-11-25T01:32:02;5.53;;;2.80;;
42192;SDS011;52467;40.114;18.306;2022-11-25T01:34:29;5.73;;;2.97;;
42192;SDS011;52467;40.114;18.306;2022-11-25T01:37:00;9.10;;;2.78;;
42192;SDS011;52467;40.114;18.306;2022-11-25T01:39:27;6.80;;;3.55;;
42192;SDS011;52467;40.114;18.306;2022-11-25T01:41:58;10.07;;;3.30;;
42192;SDS011;52467;40.114;18.306;2022-11-25T01:44:26;7.20;;;3.10;;
42192;SDS011;52467;40.114;18.306;2022-11-25T01:49:49;5.55;;;3.10;;
42192;SDS011;52467;40.114;18.306;2022-11-25T01:52:28;7.43;;;3.30;;
42192;SDS011;52467;40.114;18.306;2022-11-25T01:57:47;6.40;;;3.75;;
42192;SDS011;52467;40.114;18.306;2022-11-25T02:00:37;7.15;;;3.28;;
42192;SDS011;52467;40.114;18.306;2022-11-25T02:03:05;7.18;;;3.15;;
42192;SDS011;52467;40.114;18.306;2022-11-25T02:05:40;7.43;;;3.60;;
42192;SDS011;52467;40.114;18.306;2022-11-25T02:08:20;9.68;;;3.85;;
42192;SDS011;52467;40.114;18.306;2022-11-25T02:10:50;8.23;;;3.28;;
42192;SDS011;52467;40.114;18.306;2022-11-25T02:13:19;6.75;;;3.60;;
42192;SDS011;52467;40.114;18.306;2022-11-25T02:15:47;12.55;;;3.53;;
42192;SDS011;52467;40.114;18.306;2022-11-25T02:18:15;7.40;;;3.30;;
42192;SDS011;52467;40.114;18.306;2022-11-25T02:20:44;7.13;;;3.22;;
42192;SDS011;52467;40.114;18.306;2022-11-25T02:26:00;6.18;;;3.22;;
42192;SDS011;52467;40.114;18.306;2022-11-25T02:28:28;4.93;;;2.63;;
42192;SDS011;52467;40.114;18.306;2022-11-25T02:30:57;5.25;;;2.78;;
42192;SDS011;52467;40.114;18.306;2022-11-25T02:33:25;8.15;;;2.85;;
42192;SDS011;52467;40.114;18.306;2022-11-25T02:35:56;5.97;;;2.67;;
42192;SDS011;52467;40.114;18.306;2022-11-25T02:38:34;5.88;;;2.60;;
42192;SDS011;52467;40.114;18.306;2022-11-25T02:43:46;7.43;;;2.72;;
42192;SDS011;52467;40.114;18.306;2022-11-25T02:46:14;3.90;;;2.50;;
42192;SDS011;52467;40.114;18.306;2022-11-25T02:48:47;5.30;;;2.45;;
42192;SDS011;52467;40.114;18.306;2022-11-25T02:51:33;5.35;;;2.10;;
42192;SDS011;52467;40.114;18.306;2022-11-25T02:54:00;6.50;;;2.20;;
42192;SDS011;52467;40.114;18.306;2022-11-25T02:56:30;5.10;;;2.77;;
42192;SDS011;52467;40.114;18.306;2022-11-25T02:58:58;3.72;;;2.40;;
42192;SDS011;52467;40.114;18.306;2022-11-25T03:01:28;4.83;;;2.33;;
42192;SDS011;52467;40.114;18.306;2022-11-25T03:03:57;8.23;;;2.65;;
42192;SDS011;52467;40.114;18.306;2022-11-25T03:06:26;8.40;;;2.53;;
42192;SDS011;52467;40.114;18.306;2022-11-25T03:08:54;8.30;;;2.50;;
42192;SDS011;52467;40.114;18.306;2022-11-25T03:11:22;6.05;;;2.40;;
42192;SDS011;52467;40.114;18.306;2022-11-25T03:14:10;4.68;;;1.98;;
42192;SDS011;52467;40.114;18.306;2022-11-25T03:16:37;5.30;;;2.00;;
42192;SDS011;52467;40.114;18.306;2022-11-25T03:19:05;4.47;;;2.55;;
42192;SDS011;52467;40.114;18.306;2022-11-25T03:21:34;6.00;;;2.83;;
42192;SDS011;52467;40.114;18.306;2022-11-25T03:24:01;4.50;;;2.70;;
42192;SDS011;52467;40.114;18.306;2022-11-25T03:26:28;5.13;;;2.38;;
42192;SDS011;52467;40.114;18.306;2022-11-25T03:28:56;8.40;;;2.53;;
42192;SDS011;52467;40.114;18.306;2022-11-25T03:31:25;5.20;;;2.70;;
42192;SDS011;52467;40.114;18.306;2022-11-25T03:33:53;5.15;;;2.58;;
42192;SDS011;52467;40.114;18.306;2022-11-25T03:36:21;6.28;;;2.65;;
42192;SDS011;52467;40.114;18.306;2022-11-25T03:38:49;4.22;;;2.05;;
42192;SDS011;52467;40.114;18.306;2022-11-25T03:41:16;4.97;;;2.53;;
42192;SDS011;52467;40.114;18.306;2022-11-25T03:43:44;7.07;;;2.65;;
42192;SDS011;52467;40.114;18.306;2022-11-25T03:46:12;5.53;;;2.60;;
42192;SDS011;52467;40.114;18.306;2022-11-25T03:48:40;7.35;;;2.70;;
42192;SDS011;52467;40.114;18.306;2022-11-25T03:51:19;6.80;;;2.80;;
42192;SDS011;52467;40.114;18.306;2022-11-25T03:53:47;6.68;;;3.03;;
42192;SDS011;52467;40.114;18.306;2022-11-25T03:56:14;4.50;;;2.53;;
42192;SDS011;52467;40.114;18.306;2022-11-25T03:58:42;4.70;;;2.47;;
42192;SDS011;52467;40.114;18.306;2022-11-25T04:01:11;5.28;;;2.22;;
42192;SDS011;52467;40.114;18.306;2022-11-25T04:03:38;7.67;;;2.80;;
42192;SDS011;52467;40.114;18.306;2022-11-25T04:06:05;8.00;;;3.55;;
42192;SDS011;52467;40.114;18.306;2022-11-25T04:08:33;7.63;;;3.17;;
42192;SDS011;52467;40.114;18.306;2022-11-25T04:11:01;4.45;;;2.42;;
42192;SDS011;52467;40.114;18.306;2022-11-25T04:13:31;7.17;;;2.97;;
42192;SDS011;52467;40.114;18.306;2022-11-25T04:15:59;5.43;;;2.42;;
42192;SDS011;52467;40.114;18.306;2022-11-25T04:18:26;5.77;;;2.43;;
42192;SDS011;52467;40.114;18.306;2022-11-25T04:20:57;7.00;;;2.97;;
42192;SDS011;52467;40.114;18.306;2022-11-25T04:23:24;5.05;;;2.75;;
42192;SDS011;52467;40.114;18.306;2022-11-25T04:25:57;5.63;;;2.50;;
42192;SDS011;52467;40.114;18.306;2022-11-25T04:28:32;8.82;;;2.55;;
42192;SDS011;52467;40.114;18.306;2022-11-25T04:31:04;3.55;;;2.38;;
42192;SDS011;52467;40.114;18.306;2022-11-25T04:33:35;5.72;;;2.65;;
42192;SDS011;52467;40.114;18.306;2022-11-25T04:36:02;3.83;;;2.13;;
42192;SDS011;52467;40.114;18.306;2022-11-25T04:38:31;7.80;;;2.42;;
42192;SDS011;52467;40.114;18.306;2022-11-25T04:41:00;7.67;;;2.47;;
42192;SDS011;52467;40.114;18.306;2022-11-25T04:43:31;3.40;;;2.33;;
42192;SDS011;52467;40.114;18.306;2022-11-25T04:46:03;6.47;;;2.20;;
42192;SDS011;52467;40.114;18.306;2022-11-25T04:48:39;5.05;;;2.38;;
42192;SDS011;52467;40.114;18.306;2022-11-25T04:51:07;4.38;;;2.20;;
42192;SDS011;52467;40.114;18.306;2022-11-25T04:53:34;7.00;;;2.67;;
42192;SDS011;52467;40.114;18.306;2022-11-25T04:56:02;3.60;;;2.35;;
42192;SDS011;52467;40.114;18.306;2022-11-25T04:58:35;7.40;;;2.50;;
42192;SDS011;52467;40.114;18.306;2022-11-25T05:01:21;6.40;;;2.80;;
42192;SDS011;52467;40.114;18.306;2022-11-25T05:03:52;6.13;;;2.58;;
42192;SDS011;52467;40.114;18.306;2022-11-25T05:06:23;5.85;;;2.60;;
42192;SDS011;52467;40.114;18.306;2022-11-25T05:08:52;4.17;;;2.63;;
42192;SDS011;52467;40.114;18.306;2022-11-25T05:11:22;6.07;;;2.65;;
42192;SDS011;52467;40.114;18.306;2022-11-25T05:13:51;3.28;;;2.15;;
42192;SDS011;52467;40.114;18.306;2022-11-25T05:16:19;3.70;;;2.53;;
42192;SDS011;52467;40.114;18.306;2022-11-25T05:18:46;5.50;;;2.60;;
42192;SDS011;52467;40.114;18.306;2022-11-25T05:21:13;4.70;;;2.53;;
42192;SDS011;52467;40.114;18.306;2022-11-25T05:23:44;4.35;;;2.13;;
42192;SDS011;52467;40.114;18.306;2022-11-25T05:26:12;3.97;;;1.88;;
42192;SDS011;52467;40.114;18.306;2022-11-25T05:28:45;7.00;;;2.33;;
42192;SDS011;52467;40.114;18.306;2022-11-25T05:31:13;4.28;;;1.88;;
42192;SDS011;52467;40.114;18.306;2022-11-25T05:33:41;4.05;;;1.83;;
42192;SDS011;52467;40.114;18.306;2022-11-25T05:36:09;3.67;;;2.00;;
42192;SDS011;52467;40.114;18.306;2022-11-25T05:38:44;5.07;;;2.20;;
42192;SDS011;52467;40.114;18.306;2022-11-25T05:41:23;2.78;;;1.77;;
42192;SDS011;52467;40.114;18.306;2022-11-25T05:43:52;4.97;;;1.85;;
42192;SDS011;52467;40.114;18.306;2022-11-25T05:46:20;4.38;;;2.00;;
42192;SDS011;52467;40.114;18.306;2022-11-25T05:48:53;4.47;;;2.17;;
42192;SDS011;52467;40.114;18.306;2022-11-25T05:51:21;4.47;;;2.00;;
42192;SDS011;52467;40.114;18.306;2022-11-25T05:53:51;4.45;;;2.10;;
42192;SDS011;52467;40.114;18.306;2022-11-25T05:56:22;5.80;;;2.10;;
42192;SDS011;52467;40.114;18.306;2022-11-25T05:59:21;5.40;;;1.85;;
42192;SDS011;52467;40.114;18.306;2022-11-25T06:02:15;5.57;;;2.03;;
42192;SDS011;52467;40.114;18.306;2022-11-25T06:04:42;3.72;;;2.03;;
42192;SDS011;52467;40.114;18.306;2022-11-25T06:07:10;3.00;;;1.58;;
42192;SDS011;52467;40.114;18.306;2022-11-25T06:09:39;6.78;;;1.70;;
42192;SDS011;52467;40.114;18.306;2022-11-25T06:12:06;3.50;;;1.80;;
42192;SDS011;52467;40.114;18.306;2022-11-25T06:14:40;5.57;;;1.90;;
42192;SDS011;52467;40.114;18.306;2022-11-25T06:17:07;3.05;;;1.75;;
42192;SDS011;52467;40.114;18.306;2022-11-25T06:19:46;3.70;;;1.80;;
42192;SDS011;52467;40.114;18.306;2022-11-25T06:22:14;5.22;;;2.10;;
42192;SDS011;52467;40.114;18.306;2022-11-25T06:24:41;4.23;;;2.10;;
42192;SDS011;52467;40.114;18.306;2022-11-25T06:27:10;5.57;;;2.05;;
42192;SDS011;52467;40.114;18.306;2022-11-25T06:29:41;4.50;;;2.33;;
42192;SDS011;52467;40.114;18.306;2022-11-25T06:32:10;6.00;;;1.77;;
42192;SDS011;52467;40.114;18.306;2022-11-25T06:34:58;3.17;;;1.65;;
42192;SDS011;52467;40.114;18.306;2022-11-25T06:37:43;3.47;;;1.30;;
42192;SDS011;52467;40.114;18.306;2022-11-25T06:40:11;6.15;;;2.05;;
42192;SDS011;52467;40.114;18.306;2022-11-25T06:42:40;5.47;;;1.93;;
42192;SDS011;52467;40.114;18.306;2022-11-25T06:45:09;6.60;;;2.03;;
42192;SDS011;52467;40.114;18.306;2022-11-25T06:47:36;5.65;;;1.50;;
42192;SDS011;52467;40.114;18.306;2022-11-25T06:50:04;5.15;;;1.90;;
42192;SDS011;52467;40.114;18.306;2022-11-25T06:52:32;5.55;;;2.17;;
42192;SDS011;52467;40.114;18.306;2022-11-25T06:54:59;2.20;;;1.57;;
42192;SDS011;52467;40.114;18.306;2022-11-25T06:57:27;6.13;;;1.77;;
42192;SDS011;52467;40.114;18.306;2022-11-25T06:59:54;2.72;;;1.85;;
42192;SDS011;52467;40.114;18.306;2022-11-25T07:02:21;4.72;;;1.90;;
42192;SDS011;52467;40.114;18.306;2022-11-25T07:05:09;5.50;;;1.90;;
42192;SDS011;52467;40.114;18.306;2022-11-25T07:07:36;4.25;;;1.90;;
42192;SDS011;52467;40.114;18.306;2022-11-25T07:10:04;7.20;;;1.80;;
42192;SDS011;52467;40.114;18.306;2022-11-25T07:12:32;4.40;;;1.80;;
42192;SDS011;52467;40.114;18.306;2022-11-25T07:14:59;3.50;;;1.55;;
42192;SDS011;52467;40.114;18.306;2022-11-25T07:17:26;4.38;;;1.35;;
42192;SDS011;52467;40.114;18.306;2022-11-25T07:19:54;3.53;;;1.70;;
42192;SDS011;52467;40.114;18.306;2022-11-25T07:22:21;4.97;;;1.80;;
42192;SDS011;52467;40.114;18.306;2022-11-25T07:24:48;4.45;;;1.55;;
42192;SDS011;52467;40.114;18.306;2022-11-25T07:27:16;4.35;;;2.00;;
42192;SDS011;52467;40.114;18.306;2022-11-25T07:29:43;4.90;;;1.63;;
42192;SDS011;52467;40.114;18.306;2022-11-25T07:32:31;4.53;;;1.45;;
42192;SDS011;52467;40.114;18.306;2022-11-25T07:34:59;4.28;;;1.85;;
42192;SDS011;52467;40.114;18.306;2022-11-25T07:37:26;4.15;;;1.52;;
42192;SDS011;52467;40.114;18.306;2022-11-25T07:39:53;3.47;;;1.60;;
42192;SDS011;52467;40.114;18.306;2022-11-25T07:42:21;5.28;;;1.60;;
42192;SDS011;52467;40.114;18.306;2022-11-25T07:44:48;3.95;;;1.45;;
42192;SDS011;52467;40.114;18.306;2022-11-25T07:47:35;2.13;;;1.33;;
42192;SDS011;52467;40.114;18.306;2022-11-25T07:50:03;4.03;;;1.47;;
42192;SDS011;52467;40.114;18.306;2022-11-25T07:52:30;5.25;;;1.35;;
42192;SDS011;52467;40.114;18.306;2022-11-25T07:54:57;2.20;;;1.48;;
42192;SDS011;52467;40.114;18.306;2022-11-25T07:57:25;2.45;;;1.27;;
42192;SDS011;52467;40.114;18.306;2022-11-25T07:59:52;1.90;;;1.20;;
42192;SDS011;52467;40.114;18.306;2022-11-25T08:02:19;2.90;;;1.52;;
42192;SDS011;52467;40.114;18.306;2022-11-25T08:04:47;2.95;;;1.55;;
42192;SDS011;52467;40.114;18.306;2022-11-25T08:07:15;2.05;;;1.20;;
42192;SDS011;52467;40.114;18.306;2022-11-25T08:09:42;5.77;;;1.60;;
42192;SDS011;52467;40.114;18.306;2022-11-25T08:12:09;4.13;;;1.20;;
42192;SDS011;52467;40.114;18.306;2022-11-25T08:14:36;3.00;;;1.35;;
42192;SDS011;52467;40.114;18.306;2022-11-25T08:17:04;3.25;;;1.38;;
42192;SDS011;52467;40.114;18.306;2022-11-25T08:19:31;4.80;;;1.70;;
42192;SDS011;52467;40.114;18.306;2022-11-25T08:21:59;6.38;;;1.60;;
42192;SDS011;52467;40.114;18.306;2022-11-25T08:24:26;5.00;;;1.63;;
42192;SDS011;52467;40.114;18.306;2022-11-25T08:26:54;2.90;;;1.40;;
42192;SDS011;52467;40.114;18.306;2022-11-25T08:29:24;4.00;;;1.67;;
42192;SDS011;52467;40.114;18.306;2022-11-25T08:31:52;3.92;;;1.45;;
42192;SDS011;52467;40.114;18.306;2022-11-25T08:34:21;3.20;;;1.50;;
42192;SDS011;52467;40.114;18.306;2022-11-25T08:36:54;4.80;;;1.70;;
42192;SDS011;52467;40.114;18.306;2022-11-25T08:39:22;4.85;;;1.80;;
42192;SDS011;52467;40.114;18.306;2022-11-25T08:42:09;2.90;;;1.20;;
42192;SDS011;52467;40.114;18.306;2022-11-25T08:44:37;4.68;;;1.45;;
42192;SDS011;52467;40.114;18.306;2022-11-25T08:47:04;3.30;;;1.30;;
42192;SDS011;52467;40.114;18.306;2022-11-25T08:49:31;2.70;;;1.17;;
42192;SDS011;52467;40.114;18.306;2022-11-25T08:52:01;3.63;;;1.27;;
42192;SDS011;52467;40.114;18.306;2022-11-25T08:54:29;2.47;;;1.10;;
42192;SDS011;52467;40.114;18.306;2022-11-25T08:56:56;4.85;;;1.27;;
42192;SDS011;52467;40.114;18.306;2022-11-25T08:59:23;2.53;;;1.35;;
42192;SDS011;52467;40.114;18.306;2022-11-25T09:01:51;5.90;;;1.57;;
42192;SDS011;52467;40.114;18.306;2022-11-25T09:04:18;3.08;;;1.25;;
42192;SDS011;52467;40.114;18.306;2022-11-25T09:06:45;3.10;;;1.30;;
42192;SDS011;52467;40.114;18.306;2022-11-25T09:09:13;1.30;;;0.98;;
42192;SDS011;52467;40.114;18.306;2022-11-25T09:11:40;2.17;;;0.90;;
42192;SDS011;52467;40.114;18.306;2022-11-25T09:14:08;2.67;;;1.00;;
42192;SDS011;52467;40.114;18.306;2022-11-25T09:16:35;4.18;;;1.17;;
42192;SDS011;52467;40.114;18.306;2022-11-25T09:19:02;1.80;;;0.80;;
42192;SDS011;52467;40.114;18.306;2022-11-25T09:21:30;2.05;;;0.82;;
42192;SDS011;52467;40.114;18.306;2022-11-25T09:23:57;2.85;;;0.90;;
42192;SDS011;52467;40.114;18.306;2022-11-25T09:26:28;1.70;;;1.00;;
42192;SDS011;52467;40.114;18.306;2022-11-25T09:28:57;1.17;;;0.80;;
42192;SDS011;52467;40.114;18.306;2022-11-25T09:31:24;1.70;;;0.98;;
42192;SDS011;52467;40.114;18.306;2022-11-25T09:33:52;2.88;;;1.13;;
42192;SDS011;52467;40.114;18.306;2022-11-25T09:36:19;1.83;;;0.97;;
42192;SDS011;52467;40.114;18.306;2022-11-25T09:38:47;4.00;;;0.73;;
42192;SDS011;52467;40.114;18.306;2022-11-25T09:53:08;2.20;;;0.93;;
42192;SDS011;52467;40.114;18.306;2022-11-25T09:55:57;2.78;;;1.13;;
42192;SDS011;52467;40.114;18.306;2022-11-25T09:58:31;4.47;;;0.93;;
42192;SDS011;52467;40.114;18.306;2022-11-25T10:01:03;2.13;;;1.00;;
42192;SDS011;52467;40.114;18.306;2022-11-25T10:03:40;1.95;;;1.20;;
42192;SDS011;52467;40.114;18.306;2022-11-25T10:06:28;4.35;;;1.52;;
42192;SDS011;52467;40.114;18.306;2022-11-25T10:08:59;3.97;;;1.30;;
42192;SDS011;52467;40.114;18.306;2022-11-25T10:22:26;1.38;;;0.80;;
42192;SDS011;52467;40.114;18.306;2022-11-25T10:24:56;2.05;;;0.88;;
42192;SDS011;52467;40.114;18.306;2022-11-25T10:27:48;1.40;;;0.70;;
42192;SDS011;52467;40.114;18.306;2022-11-25T10:30:26;2.22;;;0.50;;
42192;SDS011;52467;40.114;18.306;2022-11-25T10:35:52;3.38;;;0.70;;
42192;SDS011;52467;40.114;18.306;2022-11-25T10:38:24;1.23;;;0.50;;
42192;SDS011;52467;40.114;18.306;2022-11-25T10:40:54;1.67;;;0.60;;
42192;SDS011;52467;40.114;18.306;2022-11-25T10:43:22;1.40;;;0.50;;
42192;SDS011;52467;40.114;18.306;2022-11-25T10:45:55;4.10;;;0.70;;
42192;SDS011;52467;40.114;18.306;2022-11-25T10:48:40;2.00;;;0.50;;
42192;SDS011;52467;40.114;18.306;2022-11-25T10:51:36;3.40;;;0.70;;
42192;SDS011;52467;40.114;18.306;2022-11-25T10:54:09;2.00;;;0.60;;
42192;SDS011;52467;40.114;18.306;2022-11-25T10:56:52;2.50;;;0.90;;
42192;SDS011;52467;40.114;18.306;2022-11-25T10:59:30;2.00;;;0.60;;
42192;SDS011;52467;40.114;18.306;2022-11-25T11:07:37;3.50;;;0.40;;
42192;SDS011;52467;40.114;18.306;2022-11-25T11:20:55;1.20;;;0.57;;
42192;SDS011;52467;40.114;18.306;2022-11-25T11:23:24;1.77;;;0.68;;
42192;SDS011;52467;40.114;18.306;2022-11-25T11:25:54;1.65;;;0.52;;
42192;SDS011;52467;40.114;18.306;2022-11-25T11:31:04;0.85;;;0.52;;
42192;SDS011;52467;40.114;18.306;2022-11-25T11:33:35;2.80;;;0.68;;
42192;SDS011;52467;40.114;18.306;2022-11-25T11:42:00;1.20;;;0.50;;
42192;SDS011;52467;40.114;18.306;2022-11-25T11:58:12;1.08;;;0.60;;
42192;SDS011;52467;40.114;18.306;2022-11-25T12:03:34;2.00;;;0.40;;
42192;SDS011;52467;40.114;18.306;2022-11-25T12:06:06;1.33;;;0.70;;
42192;SDS011;52467;40.114;18.306;2022-11-25T12:09:21;2.50;;;0.57;;
42192;SDS011;52467;40.114;18.306;2022-11-25T12:11:36;1.13;;;0.50;;
42192;SDS011;52467;40.114;18.306;2022-11-25T12:16:58;0.90;;;0.50;;
42192;SDS011;52467;40.114;18.306;2022-11-25T12:19:29;0.55;;;0.38;;
42192;SDS011;52467;40.114;18.306;2022-11-25T12:22:05;3.28;;;0.60;;
42192;SDS011;52467;40.114;18.306;2022-11-25T12:24:41;1.30;;;0.68;;
42192;SDS011;52467;40.114;18.306;2022-11-25T12:27:26;1.10;;;0.60;;
42192;SDS011;52467;40.114;18.306;2022-11-25T12:30:05;0.98;;;0.60;;
42192;SDS011;52467;40.114;18.306;2022-11-25T12:35:21;1.90;;;0.70;;
42192;SDS011;52467;40.114;18.306;2022-11-25T12:37:55;0.67;;;0.60;;
42192;SDS011;52467;40.114;18.306;2022-11-25T12:40:42;4.70;;;0.43;;
42192;SDS011;52467;40.114;18.306;2022-11-25T12:43:32;1.03;;;0.50;;
42192;SDS011;52467;40.114;18.306;2022-11-25T12:48:50;0.85;;;0.40;;
42192;SDS011;52467;40.114;18.306;2022-11-25T12:51:23;0.63;;;0.43;;
42192;SDS011;52467;40.114;18.306;2022-11-25T12:59:34;2.40;;;0.52;;
42192;SDS011;52467;40.114;18.306;2022-11-25T13:16:53;2.58;;;0.65;;
42192;SDS011;52467;40.114;18.306;2022-11-25T13:19:22;0.70;;;0.37;;
42192;SDS011;52467;40.114;18.306;2022-11-25T13:22:00;1.00;;;0.50;;
42192;SDS011;52467;40.114;18.306;2022-11-25T13:24:29;1.00;;;0.40;;
42192;SDS011;52467;40.114;18.306;2022-11-25T13:27:02;1.10;;;0.40;;
42192;SDS011;52467;40.114;18.306;2022-11-25T13:37:50;1.70;;;0.90;;
42192;SDS011;52467;40.114;18.306;2022-11-25T13:40:39;1.20;;;0.68;;
42192;SDS011;52467;40.114;18.306;2022-11-25T13:43:18;1.45;;;0.63;;
42192;SDS011;52467;40.114;18.306;2022-11-25T13:45:47;0.98;;;0.45;;
42192;SDS011;52467;40.114;18.306;2022-11-25T13:50:49;0.80;;;0.60;;
42192;SDS011;52467;40.114;18.306;2022-11-25T13:53:37;2.45;;;0.40;;
42192;SDS011;52467;40.114;18.306;2022-11-25T13:56:12;1.70;;;0.60;;
42192;SDS011;52467;40.114;18.306;2022-11-25T13:59:07;1.80;;;0.80;;
42192;SDS011;52467;40.114;18.306;2022-11-25T14:01:38;3.10;;;1.35;;
42192;SDS011;52467;40.114;18.306;2022-11-25T14:04:47;2.60;;;1.13;;
42192;SDS011;52467;40.114;18.306;2022-11-25T14:25:15;2.53;;;0.80;;
42192;SDS011;52467;40.114;18.306;2022-11-25T14:28:23;1.65;;;0.77;;
42192;SDS011;52467;40.114;18.306;2022-11-25T14:31:11;2.80;;;1.20;;
42192;SDS011;52467;40.114;18.306;2022-11-25T14:33:44;1.80;;;0.73;;
42192;SDS011;52467;40.114;18.306;2022-11-25T14:36:28;3.58;;;1.00;;
42192;SDS011;52467;40.114;18.306;2022-11-25T14:38:58;2.33;;;1.13;;
42192;SDS011;52467;40.114;18.306;2022-11-25T14:41:32;2.38;;;1.40;;
42192;SDS011;52467;40.114;18.306;2022-11-25T14:44:08;2.95;;;1.80;;
42192;SDS011;52467;40.114;18.306;2022-11-25T14:46:55;6.97;;;2.75;;
42192;SDS011;52467;40.114;18.306;2022-11-25T14:49:24;6.55;;;2.40;;
42192;SDS011;52467;40.114;18.306;2022-11-25T14:52:20;3.55;;;1.70;;
42192;SDS011;52467;40.114;18.306;2022-11-25T14:54:55;4.05;;;1.90;;
42192;SDS011;52467;40.114;18.306;2022-11-25T14:57:24;3.95;;;1.65;;
42192;SDS011;52467;40.114;18.306;2022-11-25T14:59:56;4.78;;;1.88;;
42192;SDS011;52467;40.114;18.306;2022-11-25T15:02:31;4.47;;;1.63;;
42192;SDS011;52467;40.114;18.306;2022-11-25T15:05:22;3.95;;;2.30;;
42192;SDS011;52467;40.114;18.306;2022-11-25T15:07:56;7.40;;;2.90;;
42192;SDS011;52467;40.114;18.306;2022-11-25T15:10:35;5.40;;;2.83;;
42192;SDS011;52467;40.114;18.306;2022-11-25T15:13:29;7.50;;;3.45;;
42192;SDS011;52467;40.114;18.306;2022-11-25T15:19:02;5.05;;;2.75;;
42192;SDS011;52467;40.114;18.306;2022-11-25T15:21:34;7.70;;;2.97;;
42192;SDS011;52467;40.114;18.306;2022-11-25T15:24:23;6.22;;;3.15;;
42192;SDS011;52467;40.114;18.306;2022-11-25T15:26:51;5.82;;;3.40;;
42192;SDS011;52467;40.114;18.306;2022-11-25T15:29:20;7.00;;;3.00;;
42192;SDS011;52467;40.114;18.306;2022-11-25T15:31:48;8.38;;;3.67;;
42192;SDS011;52467;40.114;18.306;2022-11-25T15:34:16;8.23;;;4.50;;
42192;SDS011;52467;40.114;18.306;2022-11-25T15:36:45;10.63;;;5.22;;
42192;SDS011;52467;40.114;18.306;2022-11-25T15:39:20;19.83;;;9.18;;
42192;SDS011;52467;40.114;18.306;2022-11-25T15:41:51;22.40;;;10.00;;
42192;SDS011;52467;40.114;18.306;2022-11-25T15:44:34;18.20;;;9.63;;
42192;SDS011;52467;40.114;18.306;2022-11-25T15:47:24;18.80;;;8.20;;
42192;SDS011;52467;40.114;18.306;2022-11-25T15:49:57;19.70;;;9.30;;
42192;SDS011;52467;40.114;18.306;2022-11-25T15:52:30;18.87;;;9.13;;
42192;SDS011;52467;40.114;18.306;2022-11-25T15:55:04;19.63;;;10.00;;
42192;SDS011;52467;40.114;18.306;2022-11-25T15:57:34;22.83;;;10.15;;
42192;SDS011;52467;40.114;18.306;2022-11-25T16:00:12;16.70;;;9.20;;
42192;SDS011;52467;40.114;18.306;2022-11-25T16:08:01;19.05;;;8.88;;
42192;SDS011;52467;40.114;18.306;2022-11-25T16:11:16;17.40;;;9.38;;
42192;SDS011;52467;40.114;18.306;2022-11-25T16:13:47;16.42;;;9.48;;
42192;SDS011;52467;40.114;18.306;2022-11-25T16:26:32;17.80;;;9.50;;
42192;SDS011;52467;40.114;18.306;2022-11-25T16:29:16;16.88;;;9.18;;
42192;SDS011;52467;40.114;18.306;2022-11-25T16:31:46;16.33;;;8.90;;
42192;SDS011;52467;40.114;18.306;2022-11-25T16:34:14;17.02;;;9.07;;
42192;SDS011;52467;40.114;18.306;2022-11-25T16:36:46;21.20;;;10.38;;
42192;SDS011;52467;40.114;18.306;2022-11-25T16:39:13;21.13;;;11.60;;
42192;SDS011;52467;40.114;18.306;2022-11-25T16:41:41;21.60;;;11.55;;
42192;SDS011;52467;40.114;18.306;2022-11-25T16:44:14;25.33;;;11.98;;
42192;SDS011;52467;40.114;18.306;2022-11-25T16:46:44;23.73;;;12.30;;
42192;SDS011;52467;40.114;18.306;2022-11-25T16:49:15;31.38;;;13.73;;
42192;SDS011;52467;40.114;18.306;2022-11-25T16:51:44;28.50;;;14.82;;
42192;SDS011;52467;40.114;18.306;2022-11-25T16:54:11;30.55;;;15.13;;
42192;SDS011;52467;40.114;18.306;2022-11-25T16:56:39;33.70;;;15.07;;
42192;SDS011;52467;40.114;18.306;2022-11-25T16:59:12;31.15;;;15.20;;
42192;SDS011;52467;40.114;18.306;2022-11-25T17:01:45;30.17;;;15.48;;
42192;SDS011;52467;40.114;18.306;2022-11-25T17:04:13;25.23;;;14.20;;
42192;SDS011;52467;40.114;18.306;2022-11-25T17:06:41;28.88;;;13.68;;
42192;SDS011;52467;40.114;18.306;2022-11-25T17:09:11;21.67;;;12.32;;
42192;SDS011;52467;40.114;18.306;2022-11-25T17:11:42;23.07;;;13.37;;
42192;SDS011;52467;40.114;18.306;2022-11-25T17:14:30;21.85;;;12.32;;
42192;SDS011;52467;40.114;18.306;2022-11-25T17:17:00;23.27;;;12.10;;
42192;SDS011;52467;40.114;18.306;2022-11-25T17:19:28;23.75;;;12.18;;
42192;SDS011;52467;40.114;18.306;2022-11-25T17:21:57;26.15;;;12.23;;
42192;SDS011;52467;40.114;18.306;2022-11-25T17:24:24;24.08;;;13.52;;
42192;SDS011;52467;40.114;18.306;2022-11-25T17:26:54;28.25;;;15.35;;
42192;SDS011;52467;40.114;18.306;2022-11-25T17:29:50;26.73;;;15.60;;
42192;SDS011;52467;40.114;18.306;2022-11-25T17:32:13;28.15;;;14.57;;
42192;SDS011;52467;40.114;18.306;2022-11-25T17:34:41;31.10;;;16.50;;
42192;SDS011;52467;40.114;18.306;2022-11-25T17:37:15;31.08;;;15.15;;